KGSP/GSP METAR and TAF weather

Enter ICAO airport designator
Station Type Date Time Source
KGSP METAR 2023/02/05 22:53 UTC NOAA

KGSP 052253Z 21008KT 10SM CLR 12/03 A3009 RMK AO2 SLP192 T01170028


Station Type Date Time Source
KGSP Decoded METAR 2023/02/05 22:53 UTC NOAA

GREER GREENVILLE SPARTBURG, SC, United States (KGSP) 34-53N 82-13W 286M
Feb 05, 2023 - 05:53 PM EST / 2023.02.05 2253 UTC
Wind: from the SSW (210 degrees) at 9 MPH (8 KT):0
Visibility: 10 mile(s):0
Sky conditions: clear
Temperature: 53.1 F (11.7 C)
Dew Point: 37.0 F (2.8 C)
Relative Humidity: 54%
Pressure (altimeter): 30.09 in. Hg (1018 hPa)
ob: KGSP 052253Z 21008KT 10SM CLR 12/03 A3009 RMK AO2 SLP192 T01170028
cycle: 23

Station Type Date Time Source
KGSP TAF 2023/02/05 18:33 UTC NOAA

TAF KGSP 051730Z 0518/0618 24011KT P6SM SCT040 BKN250
FM052300 22007KT P6SM FEW250
FM060600 28005KT P6SM SKC
FM061200 34006KT P6SM SKC

Example: see airport list